sensor_id;sensor_type;location;lat;lon;timestamp;pressure;altitude;pressure_sealevel;temperature;humidity
34241;BME280;20503;50.200;19.508;2023-03-04T00:01:37;101623.68;;;-0.36;100.00
34241;BME280;20503;50.200;19.508;2023-03-04T00:06:39;101624.27;;;-0.44;100.00
34241;BME280;20503;50.200;19.508;2023-03-04T00:11:43;101635.80;;;-0.31;100.00
34241;BME280;20503;50.200;19.508;2023-03-04T00:16:52;101623.33;;;-0.32;100.00
34241;BME280;20503;50.200;19.508;2023-03-04T00:21:59;101610.13;;;-0.24;100.00
34241;BME280;20503;50.200;19.508;2023-03-04T00:27:07;101597.16;;;-0.19;100.00
34241;BME280;20503;50.200;19.508;2023-03-04T00:32:15;101594.27;;;-0.16;100.00
34241;BME280;20503;50.200;19.508;2023-03-04T00:37:22;101589.09;;;-0.19;100.00
34241;BME280;20503;50.200;19.508;2023-03-04T00:42:30;101590.70;;;-0.16;100.00
34241;BME280;20503;50.200;19.508;2023-03-04T00:47:38;101589.47;;;-0.12;100.00
34241;BME280;20503;50.200;19.508;2023-03-04T00:52:46;101568.20;;;-0.15;100.00
34241;BME280;20503;50.200;19.508;2023-03-04T00:57:55;101559.76;;;-0.22;100.00
34241;BME280;20503;50.200;19.508;2023-03-04T01:03:02;101543.38;;;-0.19;100.00
34241;BME280;20503;50.200;19.508;2023-03-04T01:08:09;101527.02;;;-0.16;100.00
34241;BME280;20503;50.200;19.508;2023-03-04T01:13:17;101507.94;;;-0.24;100.00
34241;BME280;20503;50.200;19.508;2023-03-04T01:18:25;101513.30;;;-0.24;100.00
34241;BME280;20503;50.200;19.508;2023-03-04T01:23:33;101503.89;;;-0.29;100.00
34241;BME280;20503;50.200;19.508;2023-03-04T01:28:41;101493.49;;;-0.34;100.00
34241;BME280;20503;50.200;19.508;2023-03-04T01:33:49;101488.88;;;-0.32;100.00
34241;BME280;20503;50.200;19.508;2023-03-04T01:38:57;101480.05;;;-0.34;100.00
34241;BME280;20503;50.200;19.508;2023-03-04T01:44:04;101483.11;;;-0.27;100.00
34241;BME280;20503;50.200;19.508;2023-03-04T01:49:13;101474.45;;;-0.31;100.00
34241;BME280;20503;50.200;19.508;2023-03-04T01:54:21;101468.34;;;-0.33;100.00
34241;BME280;20503;50.200;19.508;2023-03-04T01:59:30;101464.79;;;-0.33;100.00
34241;BME280;20503;50.200;19.508;2023-03-04T02:04:36;101468.46;;;-0.34;100.00
34241;BME280;20503;50.200;19.508;2023-03-04T02:09:45;101465.88;;;-0.36;100.00
34241;BME280;20503;50.200;19.508;2023-03-04T02:14:53;101467.48;;;-0.33;100.00
34241;BME280;20503;50.200;19.508;2023-03-04T02:20:11;101454.91;;;-0.33;100.00
34241;BME280;20503;50.200;19.508;2023-03-04T02:25:17;101430.70;;;-0.33;100.00
34241;BME280;20503;50.200;19.508;2023-03-04T02:30:23;101422.02;;;-0.36;100.00
34241;BME280;20503;50.200;19.508;2023-03-04T02:35:28;101422.50;;;-0.31;100.00
34241;BME280;20503;50.200;19.508;2023-03-04T02:40:32;101392.81;;;-0.52;100.00
34241;BME280;20503;50.200;19.508;2023-03-04T02:45:44;101410.55;;;-0.38;100.00
34241;BME280;20503;50.200;19.508;2023-03-04T02:50:49;101405.90;;;-0.36;100.00
34241;BME280;20503;50.200;19.508;2023-03-04T02:55:55;101397.69;;;-0.35;100.00
34241;BME280;20503;50.200;19.508;2023-03-04T03:01:03;101388.63;;;-0.34;100.00
34241;BME280;20503;50.200;19.508;2023-03-04T03:06:10;101391.57;;;-0.26;100.00
34241;BME280;20503;50.200;19.508;2023-03-04T03:11:18;101386.20;;;-0.26;100.00
34241;BME280;20503;50.200;19.508;2023-03-04T03:16:29;101383.14;;;-0.21;100.00
34241;BME280;20503;50.200;19.508;2023-03-04T03:21:35;101382.78;;;-0.28;100.00
34241;BME280;20503;50.200;19.508;2023-03-04T03:26:42;101392.19;;;-0.22;100.00
34241;BME280;20503;50.200;19.508;2023-03-04T03:31:49;101389.09;;;-0.18;100.00
34241;BME280;20503;50.200;19.508;2023-03-04T03:36:57;101389.86;;;-0.16;100.00
34241;BME280;20503;50.200;19.508;2023-03-04T03:42:05;101383.49;;;-0.15;100.00
34241;BME280;20503;50.200;19.508;2023-03-04T03:47:13;101382.99;;;-0.20;100.00
34241;BME280;20503;50.200;19.508;2023-03-04T03:52:22;101375.43;;;-0.26;100.00
34241;BME280;20503;50.200;19.508;2023-03-04T03:57:29;101376.17;;;-0.24;100.00
34241;BME280;20503;50.200;19.508;2023-03-04T04:02:37;101364.30;;;-0.21;100.00
34241;BME280;20503;50.200;19.508;2023-03-04T04:07:45;101374.20;;;-0.22;100.00
34241;BME280;20503;50.200;19.508;2023-03-04T04:12:53;101372.87;;;-0.27;100.00
34241;BME280;20503;50.200;19.508;2023-03-04T04:18:02;101370.58;;;-0.32;100.00
34241;BME280;20503;50.200;19.508;2023-03-04T04:23:09;101368.73;;;-0.31;100.00
34241;BME280;20503;50.200;19.508;2023-03-04T04:28:16;101359.92;;;-0.33;100.00
34241;BME280;20503;50.200;19.508;2023-03-04T04:33:24;101362.73;;;-0.35;100.00
34241;BME280;20503;50.200;19.508;2023-03-04T04:38:32;101361.90;;;-0.46;100.00
34241;BME280;20503;50.200;19.508;2023-03-04T04:43:40;101354.20;;;-0.40;100.00
34241;BME280;20503;50.200;19.508;2023-03-04T04:48:49;101355.90;;;-0.39;100.00
34241;BME280;20503;50.200;19.508;2023-03-04T04:53:55;101357.14;;;-0.43;100.00
34241;BME280;20503;50.200;19.508;2023-03-04T04:59:05;101362.77;;;-0.46;100.00
34241;BME280;20503;50.200;19.508;2023-03-04T05:04:11;101348.92;;;-0.41;100.00
34241;BME280;20503;50.200;19.508;2023-03-04T05:09:19;101342.11;;;-0.45;100.00
34241;BME280;20503;50.200;19.508;2023-03-04T05:14:26;101335.38;;;-0.40;100.00
34241;BME280;20503;50.200;19.508;2023-03-04T05:19:34;101335.98;;;-0.36;100.00
34241;BME280;20503;50.200;19.508;2023-03-04T05:24:41;101332.69;;;-0.40;100.00
34241;BME280;20503;50.200;19.508;2023-03-04T05:29:50;101335.27;;;-0.38;100.00
34241;BME280;20503;50.200;19.508;2023-03-04T05:34:58;101346.49;;;-0.44;100.00
34241;BME280;20503;50.200;19.508;2023-03-04T05:40:08;101338.69;;;-0.47;100.00
34241;BME280;20503;50.200;19.508;2023-03-04T05:45:13;101332.70;;;-0.51;100.00
34241;BME280;20503;50.200;19.508;2023-03-04T05:50:22;101326.59;;;-0.53;100.00
34241;BME280;20503;50.200;19.508;2023-03-04T05:55:28;101324.52;;;-0.49;100.00
34241;BME280;20503;50.200;19.508;2023-03-04T06:00:37;101334.66;;;-0.53;100.00
34241;BME280;20503;50.200;19.508;2023-03-04T06:05:44;101324.06;;;-0.54;100.00
34241;BME280;20503;50.200;19.508;2023-03-04T06:10:54;101333.56;;;-0.50;100.00
34241;BME280;20503;50.200;19.508;2023-03-04T06:16:00;101329.28;;;-0.53;100.00
34241;BME280;20503;50.200;19.508;2023-03-04T06:21:08;101324.78;;;-0.52;100.00
34241;BME280;20503;50.200;19.508;2023-03-04T06:26:16;101329.03;;;-0.50;100.00
34241;BME280;20503;50.200;19.508;2023-03-04T06:31:24;101328.30;;;-0.41;100.00
34241;BME280;20503;50.200;19.508;2023-03-04T06:36:33;101320.47;;;-0.33;100.00
34241;BME280;20503;50.200;19.508;2023-03-04T06:41:40;101334.14;;;-0.36;100.00
34241;BME280;20503;50.200;19.508;2023-03-04T06:46:49;101336.34;;;-0.30;100.00
34241;BME280;20503;50.200;19.508;2023-03-04T06:51:57;101347.67;;;-0.26;100.00
34241;BME280;20503;50.200;19.508;2023-03-04T06:57:07;101346.84;;;-0.27;100.00
34241;BME280;20503;50.200;19.508;2023-03-04T07:02:13;101351.45;;;-0.18;100.00
34241;BME280;20503;50.200;19.508;2023-03-04T07:07:19;101359.91;;;-0.22;100.00
34241;BME280;20503;50.200;19.508;2023-03-04T07:12:28;101363.08;;;-0.28;100.00
34241;BME280;20503;50.200;19.508;2023-03-04T07:17:35;101362.83;;;-0.25;100.00
34241;BME280;20503;50.200;19.508;2023-03-04T07:22:45;101367.12;;;-0.23;100.00
34241;BME280;20503;50.200;19.508;2023-03-04T07:27:51;101365.87;;;-0.19;100.00
34241;BME280;20503;50.200;19.508;2023-03-04T07:32:59;101363.59;;;-0.23;100.00
34241;BME280;20503;50.200;19.508;2023-03-04T07:38:09;101365.52;;;-0.25;100.00
34241;BME280;20503;50.200;19.508;2023-03-04T07:43:14;101361.53;;;-0.31;100.00
34241;BME280;20503;50.200;19.508;2023-03-04T07:48:22;101357.60;;;-0.27;100.00
34241;BME280;20503;50.200;19.508;2023-03-04T07:53:31;101361.22;;;-0.17;100.00
34241;BME280;20503;50.200;19.508;2023-03-04T07:58:39;101362.55;;;-0.11;100.00
34241;BME280;20503;50.200;19.508;2023-03-04T08:03:45;101376.97;;;-0.02;100.00
34241;BME280;20503;50.200;19.508;2023-03-04T08:09:02;101369.41;;;-0.07;100.00
34241;BME280;20503;50.200;19.508;2023-03-04T08:14:04;101357.27;;;-0.02;100.00
34241;BME280;20503;50.200;19.508;2023-03-04T08:19:10;101368.54;;;-0.08;100.00
34241;BME280;20503;50.200;19.508;2023-03-04T08:24:17;101378.79;;;-0.02;100.00
34241;BME280;20503;50.200;19.508;2023-03-04T08:29:25;101379.66;;;-0.02;100.00
34241;BME280;20503;50.200;19.508;2023-03-04T08:34:33;101368.38;;;0.04;100.00
34241;BME280;20503;50.200;19.508;2023-03-04T08:39:41;101378.41;;;0.02;100.00
34241;BME280;20503;50.200;19.508;2023-03-04T08:44:49;101380.75;;;-0.04;100.00
34241;BME280;20503;50.200;19.508;2023-03-04T08:49:58;101376.88;;;0.20;100.00
34241;BME280;20503;50.200;19.508;2023-03-04T08:55:06;101387.09;;;0.06;100.00
34241;BME280;20503;50.200;19.508;2023-03-04T09:00:14;101387.91;;;0.17;100.00
34241;BME280;20503;50.200;19.508;2023-03-04T09:05:21;101378.73;;;0.20;100.00
34241;BME280;20503;50.200;19.508;2023-03-04T09:10:28;101377.86;;;0.19;100.00
34241;BME280;20503;50.200;19.508;2023-03-04T09:15:36;101373.09;;;0.23;100.00
34241;BME280;20503;50.200;19.508;2023-03-04T09:20:44;101374.79;;;0.24;100.00
34241;BME280;20503;50.200;19.508;2023-03-04T09:25:51;101379.39;;;0.33;100.00
34241;BME280;20503;50.200;19.508;2023-03-04T09:30:59;101375.97;;;0.31;100.00
34241;BME280;20503;50.200;19.508;2023-03-04T09:36:12;101377.38;;;0.46;100.00
34241;BME280;20503;50.200;19.508;2023-03-04T09:41:23;101380.41;;;0.52;100.00
34241;BME280;20503;50.200;19.508;2023-03-04T09:46:32;101370.44;;;0.43;100.00
34241;BME280;20503;50.200;19.508;2023-03-04T09:56:50;101361.10;;;0.47;100.00
34241;BME280;20503;50.200;19.508;2023-03-04T10:01:57;101360.51;;;0.44;100.00
34241;BME280;20503;50.200;19.508;2023-03-04T10:07:01;101374.57;;;0.47;100.00
34241;BME280;20503;50.200;19.508;2023-03-04T10:12:10;101370.16;;;0.46;100.00
34241;BME280;20503;50.200;19.508;2023-03-04T10:17:23;101357.30;;;0.50;100.00
34241;BME280;20503;50.200;19.508;2023-03-04T10:22:34;101348.03;;;0.43;100.00
34241;BME280;20503;50.200;19.508;2023-03-04T10:27:37;101338.70;;;0.47;100.00
34241;BME280;20503;50.200;19.508;2023-03-04T10:32:46;101329.70;;;0.57;100.00
34241;BME280;20503;50.200;19.508;2023-03-04T10:37:49;101330.51;;;0.48;100.00
34241;BME280;20503;50.200;19.508;2023-03-04T10:42:52;101334.78;;;0.51;100.00
34241;BME280;20503;50.200;19.508;2023-03-04T10:47:59;101321.23;;;0.62;100.00
34241;BME280;20503;50.200;19.508;2023-03-04T10:58:20;101303.75;;;0.56;100.00
34241;BME280;20503;50.200;19.508;2023-03-04T11:03:32;101312.05;;;0.64;100.00
34241;BME280;20503;50.200;19.508;2023-03-04T11:08:34;101308.75;;;0.61;100.00
34241;BME280;20503;50.200;19.508;2023-03-04T11:13:49;101308.48;;;0.64;100.00
34241;BME280;20503;50.200;19.508;2023-03-04T11:18:58;101290.89;;;0.60;100.00
34241;BME280;20503;50.200;19.508;2023-03-04T11:24:03;101292.59;;;0.61;100.00
34241;BME280;20503;50.200;19.508;2023-03-04T11:39:37;101275.80;;;0.48;100.00
34241;BME280;20503;50.200;19.508;2023-03-04T11:44:39;101272.05;;;0.39;100.00
34241;BME280;20503;50.200;19.508;2023-03-04T12:10:59;101251.54;;;0.18;100.00
34241;BME280;20503;50.200;19.508;2023-03-04T12:26:48;101241.16;;;0.34;100.00
34241;BME280;20503;50.200;19.508;2023-03-04T12:31:52;101245.41;;;0.36;100.00
34241;BME280;20503;50.200;19.508;2023-03-04T12:57:51;101221.59;;;0.62;100.00
34241;BME280;20503;50.200;19.508;2023-03-04T13:08:18;101207.34;;;0.71;100.00
34241;BME280;20503;50.200;19.508;2023-03-04T13:18:36;101205.04;;;0.66;100.00
34241;BME280;20503;50.200;19.508;2023-03-04T13:23:40;101206.51;;;0.80;100.00
34241;BME280;20503;50.200;19.508;2023-03-04T13:28:42;101206.27;;;0.83;100.00
34241;BME280;20503;50.200;19.508;2023-03-04T13:33:47;101200.59;;;0.86;100.00
34241;BME280;20503;50.200;19.508;2023-03-04T13:39:00;101197.77;;;0.97;100.00
34241;BME280;20503;50.200;19.508;2023-03-04T13:44:28;101211.52;;;0.94;100.00
34241;BME280;20503;50.200;19.508;2023-03-04T13:49:19;101202.91;;;1.00;100.00
34241;BME280;20503;50.200;19.508;2023-03-04T13:54:34;101194.09;;;0.98;100.00
34241;BME280;20503;50.200;19.508;2023-03-04T13:59:38;101197.64;;;0.98;100.00
34241;BME280;20503;50.200;19.508;2023-03-04T14:04:57;101184.89;;;1.00;100.00
34241;BME280;20503;50.200;19.508;2023-03-04T14:20:34;101176.50;;;0.94;100.00
34241;BME280;20503;50.200;19.508;2023-03-04T14:25:36;101177.38;;;1.04;100.00
34241;BME280;20503;50.200;19.508;2023-03-04T14:30:40;101180.79;;;1.06;100.00
34241;BME280;20503;50.200;19.508;2023-03-04T14:35:47;101176.97;;;1.08;100.00
34241;BME280;20503;50.200;19.508;2023-03-04T14:40:54;101170.59;;;1.09;100.00
34241;BME280;20503;50.200;19.508;2023-03-04T14:45:59;101177.69;;;1.10;100.00
34241;BME280;20503;50.200;19.508;2023-03-04T14:51:02;101177.91;;;0.98;100.00
34241;BME280;20503;50.200;19.508;2023-03-04T14:56:07;101170.83;;;0.97;100.00
34241;BME280;20503;50.200;19.508;2023-03-04T15:01:16;101166.72;;;0.93;100.00
34241;BME280;20503;50.200;19.508;2023-03-04T15:06:21;101165.59;;;0.95;100.00
34241;BME280;20503;50.200;19.508;2023-03-04T15:11:26;101164.90;;;1.03;100.00
34241;BME280;20503;50.200;19.508;2023-03-04T15:16:51;101185.90;;;1.09;100.00
34241;BME280;20503;50.200;19.508;2023-03-04T15:21:40;101164.76;;;1.14;100.00
34241;BME280;20503;50.200;19.508;2023-03-04T15:26:42;101143.06;;;1.06;100.00
34241;BME280;20503;50.200;19.508;2023-03-04T15:31:46;101164.77;;;1.23;100.00
34241;BME280;20503;50.200;19.508;2023-03-04T15:36:53;101160.12;;;1.25;100.00
34241;BME280;20503;50.200;19.508;2023-03-04T15:41:56;101165.06;;;1.30;100.00
34241;BME280;20503;50.200;19.508;2023-03-04T15:46:58;101160.26;;;1.33;100.00
34241;BME280;20503;50.200;19.508;2023-03-04T15:52:02;101153.29;;;1.31;100.00
34241;BME280;20503;50.200;19.508;2023-03-04T15:57:19;101162.95;;;1.33;100.00
34241;BME280;20503;50.200;19.508;2023-03-04T16:02:18;101146.77;;;1.33;100.00
34241;BME280;20503;50.200;19.508;2023-03-04T16:07:23;101155.86;;;1.32;100.00
34241;BME280;20503;50.200;19.508;2023-03-04T16:12:26;101148.35;;;1.36;100.00
34241;BME280;20503;50.200;19.508;2023-03-04T16:17:28;101153.16;;;1.32;100.00
34241;BME280;20503;50.200;19.508;2023-03-04T16:22:30;101161.96;;;1.34;100.00
34241;BME280;20503;50.200;19.508;2023-03-04T16:27:31;101161.84;;;1.36;100.00
34241;BME280;20503;50.200;19.508;2023-03-04T16:32:33;101164.12;;;1.40;100.00
34241;BME280;20503;50.200;19.508;2023-03-04T16:37:37;101166.23;;;1.37;100.00
34241;BME280;20503;50.200;19.508;2023-03-04T16:42:40;101172.46;;;1.37;100.00
34241;BME280;20503;50.200;19.508;2023-03-04T16:47:41;101176.30;;;1.35;100.00
34241;BME280;20503;50.200;19.508;2023-03-04T16:52:45;101172.75;;;1.34;100.00
34241;BME280;20503;50.200;19.508;2023-03-04T16:57:47;101176.44;;;1.33;100.00
34241;BME280;20503;50.200;19.508;2023-03-04T17:02:54;101183.81;;;1.31;100.00
34241;BME280;20503;50.200;19.508;2023-03-04T17:07:57;101178.55;;;1.30;100.00
34241;BME280;20503;50.200;19.508;2023-03-04T17:12:59;101184.65;;;1.32;100.00
34241;BME280;20503;50.200;19.508;2023-03-04T17:18:08;101181.24;;;1.30;100.00
34241;BME280;20503;50.200;19.508;2023-03-04T17:23:14;101175.30;;;1.26;100.00
34241;BME280;20503;50.200;19.508;2023-03-04T17:28:22;101162.95;;;1.24;100.00
34241;BME280;20503;50.200;19.508;2023-03-04T17:33:30;101169.34;;;1.23;100.00
34241;BME280;20503;50.200;19.508;2023-03-04T17:38:38;101166.34;;;1.26;100.00
34241;BME280;20503;50.200;19.508;2023-03-04T17:43:50;101174.60;;;1.24;100.00
34241;BME280;20503;50.200;19.508;2023-03-04T17:48:56;101166.34;;;1.26;100.00
34241;BME280;20503;50.200;19.508;2023-03-04T17:54:03;101178.84;;;1.27;100.00
34241;BME280;20503;50.200;19.508;2023-03-04T17:59:13;101186.91;;;1.17;100.00
34241;BME280;20503;50.200;19.508;2023-03-04T18:04:18;101181.68;;;1.16;100.00
34241;BME280;20503;50.200;19.508;2023-03-04T18:09:26;101186.77;;;1.19;100.00
34241;BME280;20503;50.200;19.508;2023-03-04T18:14:34;101185.07;;;1.18;100.00
34241;BME280;20503;50.200;19.508;2023-03-04T18:22:47;101189.32;;;1.20;100.00
34241;BME280;20503;50.200;19.508;2023-03-04T18:27:55;101181.10;;;1.22;100.00
34241;BME280;20503;50.200;19.508;2023-03-04T18:33:03;101184.80;;;1.21;100.00
34241;BME280;20503;50.200;19.508;2023-03-04T18:38:10;101162.52;;;1.19;100.00
34241;BME280;20503;50.200;19.508;2023-03-04T18:43:18;101159.25;;;1.15;100.00
34241;BME280;20503;50.200;19.508;2023-03-04T18:48:28;101163.52;;;1.18;100.00
34241;BME280;20503;50.200;19.508;2023-03-04T18:53:35;101175.71;;;1.22;100.00
34241;BME280;20503;50.200;19.508;2023-03-04T18:58:45;101164.36;;;1.28;100.00
34241;BME280;20503;50.200;19.508;2023-03-04T19:03:52;101177.73;;;1.39;100.00
34241;BME280;20503;50.200;19.508;2023-03-04T19:08:59;101172.92;;;1.42;100.00
34241;BME280;20503;50.200;19.508;2023-03-04T19:14:07;101179.56;;;1.48;100.00
34241;BME280;20503;50.200;19.508;2023-03-04T19:19:15;101169.77;;;1.47;100.00
34241;BME280;20503;50.200;19.508;2023-03-04T19:24:24;101174.32;;;1.56;100.00
34241;BME280;20503;50.200;19.508;2023-03-04T19:29:31;101177.73;;;1.58;100.00
34241;BME280;20503;50.200;19.508;2023-03-04T19:34:39;101180.30;;;1.69;100.00
34241;BME280;20503;50.200;19.508;2023-03-04T19:39:47;101185.11;;;1.75;100.00
34241;BME280;20503;50.200;19.508;2023-03-04T19:44:55;101181.41;;;1.76;100.00
34241;BME280;20503;50.200;19.508;2023-03-04T19:50:08;101184.40;;;1.73;100.00
34241;BME280;20503;50.200;19.508;2023-03-04T19:55:11;101171.49;;;1.76;100.00
34241;BME280;20503;50.200;19.508;2023-03-04T20:00:19;101185.69;;;1.78;100.00
34241;BME280;20503;50.200;19.508;2023-03-04T20:05:27;101190.38;;;1.85;100.00
34241;BME280;20503;50.200;19.508;2023-03-04T20:10:36;101180.69;;;1.92;100.00
34241;BME280;20503;50.200;19.508;2023-03-04T20:15:42;101184.09;;;1.94;100.00
34241;BME280;20503;50.200;19.508;2023-03-04T20:20:50;101177.86;;;1.94;100.00
34241;BME280;20503;50.200;19.508;2023-03-04T20:25:58;101185.09;;;1.93;100.00
34241;BME280;20503;50.200;19.508;2023-03-04T20:31:13;101190.78;;;1.90;100.00
34241;BME280;20503;50.200;19.508;2023-03-04T20:36:19;101185.38;;;1.90;100.00
34241;BME280;20503;50.200;19.508;2023-03-04T20:41:23;101181.39;;;1.94;100.00
34241;BME280;20503;50.200;19.508;2023-03-04T20:51:44;101173.57;;;2.01;100.00
34241;BME280;20503;50.200;19.508;2023-03-04T20:56:46;101169.06;;;1.92;100.00
34241;BME280;20503;50.200;19.508;2023-03-04T21:01:52;101175.29;;;1.92;100.00
34241;BME280;20503;50.200;19.508;2023-03-04T21:07:00;101177.44;;;1.98;100.00
34241;BME280;20503;50.200;19.508;2023-03-04T21:12:07;101192.08;;;1.49;100.00
34241;BME280;20503;50.200;19.508;2023-03-04T21:17:15;101212.73;;;1.20;100.00
34241;BME280;20503;50.200;19.508;2023-03-04T21:22:22;101206.87;;;1.05;100.00
34241;BME280;20503;50.200;19.508;2023-03-04T21:27:30;101205.43;;;0.92;100.00
34241;BME280;20503;50.200;19.508;2023-03-04T21:32:39;101205.98;;;0.86;100.00
34241;BME280;20503;50.200;19.508;2023-03-04T21:37:46;101194.15;;;0.68;100.00
34241;BME280;20503;50.200;19.508;2023-03-04T21:42:55;101207.02;;;0.64;100.00
34241;BME280;20503;50.200;19.508;2023-03-04T21:48:03;101204.92;;;0.68;100.00
34241;BME280;20503;50.200;19.508;2023-03-04T21:53:11;101199.38;;;0.69;100.00
34241;BME280;20503;50.200;19.508;2023-03-04T21:58:19;101197.95;;;0.65;100.00
34241;BME280;20503;50.200;19.508;2023-03-04T22:03:27;101200.52;;;0.67;100.00
34241;BME280;20503;50.200;19.508;2023-03-04T22:08:36;101182.08;;;0.62;100.00
34241;BME280;20503;50.200;19.508;2023-03-04T22:13:43;101192.56;;;0.65;100.00
34241;BME280;20503;50.200;19.508;2023-03-04T22:18:52;101189.00;;;0.65;100.00
34241;BME280;20503;50.200;19.508;2023-03-04T22:23:59;101186.19;;;0.66;100.00
34241;BME280;20503;50.200;19.508;2023-03-04T22:29:07;101188.88;;;0.66;100.00
34241;BME280;20503;50.200;19.508;2023-03-04T22:34:16;101183.06;;;0.61;100.00
34241;BME280;20503;50.200;19.508;2023-03-04T22:39:23;101182.20;;;0.61;100.00
34241;BME280;20503;50.200;19.508;2023-03-04T22:44:31;101183.19;;;0.60;100.00
34241;BME280;20503;50.200;19.508;2023-03-04T22:49:39;101186.04;;;0.58;100.00
34241;BME280;20503;50.200;19.508;2023-03-04T22:54:46;101175.26;;;0.58;100.00
34241;BME280;20503;50.200;19.508;2023-03-04T22:59:54;101190.27;;;0.61;100.00
34241;BME280;20503;50.200;19.508;2023-03-04T23:05:03;101190.00;;;0.64;100.00
34241;BME280;20503;50.200;19.508;2023-03-04T23:10:14;101184.48;;;0.65;100.00
34241;BME280;20503;50.200;19.508;2023-03-04T23:15:19;101204.92;;;0.68;100.00
34241;BME280;20503;50.200;19.508;2023-03-04T23:20:27;101202.23;;;0.68;100.00
34241;BME280;20503;50.200;19.508;2023-03-04T23:25:35;101200.52;;;0.67;100.00
34241;BME280;20503;50.200;19.508;2023-03-04T23:30:43;101209.13;;;0.61;100.00
34241;BME280;20503;50.200;19.508;2023-03-04T23:35:51;101212.68;;;0.61;100.00
34241;BME280;20503;50.200;19.508;2023-03-04T23:40:59;101212.09;;;0.58;100.00
34241;BME280;20503;50.200;19.508;2023-03-04T23:46:06;101210.38;;;0.57;100.00
34241;BME280;20503;50.200;19.508;2023-03-04T23:51:19;101212.37;;;0.55;100.00
34241;BME280;20503;50.200;19.508;2023-03-04T23:56:27;101211.65;;;0.53;100.00
